Carnival Pride — H3VU — position and weather

sailwx.info

Track history (hours):
 
Tides and Currents Weather Stations Pressure Air Temp Water Temp Dewpoint Dewpoint Depression Visibility Wind Speed Wind Dir Waves Ship Positions

Carnival Pride

Operator: Carnival Cruise Lines

Last reported at 2020-Apr-02 02:29 UTC. Time now 2020-Apr-02 04:16 UTC.
Position N 25°47' W 080°10'.

Type: Passenger vessel. MMSI: 354215000.

Date/timePositionNaut miles runAvg speedWind from/ knotsBaromVisibWave heightAir tempDewpointWater temp
2020-Apr-02 02:29N 25°47' W 080°10'0 0.0
2020-Apr-02 01:59N 25°47' W 080°10'0 0.0
2020-Apr-01 22:59N 25°47' W 080°10'0 0.0
2020-Apr-01 22:29N 25°47' W 080°10'0 0.0
2020-Apr-01 21:29N 25°47' W 080°10'0 0.0
2020-Apr-01 20:59N 25°47' W 080°10'0 0.0
2020-Apr-01 18:29N 25°47' W 080°10'0 0.0
2020-Apr-01 17:56N 25°47' W 080°10'0 0.0
2020-Apr-01 16:59N 25°47' W 080°10'0 0.0
2020-Apr-01 16:26N 25°47' W 080°10'0 0.0
2020-Apr-01 10:29N 25°47' W 080°10'0 0.0
2020-Apr-01 07:59N 25°47' W 080°10'0 0.0
2020-Apr-01 07:29N 25°47' W 080°10'0 0.0
2020-Mar-31 21:59N 25°47' W 080°10'0 0.0
2020-Mar-31 20:59N 25°47' W 080°10'0 0.0
2020-Mar-31 20:29N 25°47' W 080°10'0 0.0
2020-Mar-31 17:59N 25°47' W 080°10'0 0.0
2020-Mar-31 16:29N 25°47' W 080°10'0 0.0
2020-Mar-31 15:59N 25°47' W 080°10'0 0.0
2020-Mar-31 11:29N 25°47' W 080°10'0 0.0
2020-Mar-31 10:59N 25°47' W 080°10'1 0.8
2020-Mar-31 10:00N 25°46' W 080°09'510.1
2020-Mar-31 09:30N 25°46' W 080°04'1110.9
2020-Mar-31 08:30N 25°48' W 079°52'1212.1
2020-Mar-31 07:30N 25°38' W 079°45'1312.8
2020-Mar-31 06:30N 25°29' W 079°35'11 7.6
2020-Mar-31 05:00N 25°18' W 079°35'2 4.2
2020-Mar-31 04:30N 25°19' W 079°33'1212.1
2020-Mar-31 03:30N 25°07' W 079°34'18 7.1
2020-Mar-31 00:57N 25°13' W 079°53'12 8.5
2020-Mar-30 23:30N 25°25' W 079°53'16 8.2
2020-Mar-30 21:30N 25°41' W 079°54'4 7.1
2020-Mar-30 21:00N 25°43' W 079°57'8 2.3
2020-Mar-30 17:31N 25°48' W 080°05'0 0.0
2020-Mar-30 16:31N 25°48' W 080°05'0 0.0
2020-Mar-30 14:31N 25°48' W 080°05'0 0.0
2020-Mar-30 14:01N 25°48' W 080°05'0 0.0
2020-Mar-30 11:58N 25°48' W 080°05'0 0.0
2020-Mar-30 10:28N 25°48' W 080°05'0 0.0
2020-Mar-30 08:31N 25°48' W 080°05'0 0.0
2020-Mar-30 08:00N 25°48' W 080°05'0 0.0
2020-Mar-30 06:00N 25°48' W 080°05'0 0.0
2020-Mar-30 05:30N 25°48' W 080°05'0 0.0
2020-Mar-30 04:31N 25°48' W 080°05'0 0.0
2020-Mar-30 01:58N 25°48' W 080°05'0 0.0
2020-Mar-30 01:28N 25°48' W 080°05'0 0.0
2020-Mar-29 22:22N 25°48' W 080°05'0 0.0
2020-Mar-29 21:28N 25°48' W 080°05'0 0.0
2020-Mar-29 20:28N 25°48' W 080°05'0 0.0
2020-Mar-29 19:25N 25°48' W 080°05'0 0.0
2020-Mar-29 19:01N 25°48' W 080°05'0 0.0
2020-Mar-29 18:01N 25°48' W 080°05'0 0.0
2020-Mar-29 17:30N 25°48' W 080°05'0 0.0
2020-Mar-29 16:31N 25°48' W 080°05'0 0.0
2020-Mar-29 14:31N 25°48' W 080°05'0 0.0
2020-Mar-29 13:31N 25°48' W 080°05'0 0.1
2020-Mar-29 13:00N 25°48' W 080°05'0 0.1
2020-Mar-29 12:31N 25°48' W 080°05'0 0.0
2020-Mar-29 11:22N 25°48' W 080°05'0 0.0
2020-Mar-29 08:55N 25°48' W 080°05'0 0.0
2020-Mar-29 03:28N 25°48' W 080°05'0 0.0
2020-Mar-29 02:31N 25°48' W 080°05'0 0.0
2020-Mar-29 00:01N 25°48' W 080°05'0 0.0
2020-Mar-28 23:31N 25°48' W 080°05'0 0.0
2020-Mar-28 20:55N 25°48' W 080°05'0 0.0
2020-Mar-28 19:31N 25°48' W 080°05'0 0.0
2020-Mar-28 15:31N 25°48' W 080°05'0 0.0
2020-Mar-28 12:31N 25°48' W 080°05'0 0.0
2020-Mar-28 12:01N 25°48' W 080°05'0 0.1
2020-Mar-28 11:31N 25°48' W 080°05'0 0.0
2020-Mar-28 08:28N 25°48' W 080°05'0 0.0
2020-Mar-28 06:25N 25°48' W 080°05'0 0.0
2020-Mar-28 05:58N 25°48' W 080°05'0 0.0
2020-Mar-28 02:57N 25°48' W 080°05'0 0.0
2020-Mar-28 02:28N 25°48' W 080°05'0 0.0
2020-Mar-28 02:01N 25°48' W 080°05'0 0.0
2020-Mar-28 01:00N 25°48' W 080°05'0 0.0
2020-Mar-27 22:31N 25°48' W 080°05'0 0.0
2020-Mar-27 21:31N 25°48' W 080°05'0 0.0
2020-Mar-27 17:00N 25°48' W 080°05'0 0.0
2020-Mar-27 16:31N 25°48' W 080°05'0 0.0
2020-Mar-27 16:00N 25°48' W 080°05'0 0.0
2020-Mar-27 15:01N 25°48' W 080°05'0 0.0
2020-Mar-27 13:31N 25°48' W 080°05'0 0.0
2020-Mar-27 12:31N 25°48' W 080°05'0 0.0
2020-Mar-27 12:01N 25°48' W 080°05'0 0.0
2020-Mar-27 10:31N 25°48' W 080°05'0 0.0
2020-Mar-27 10:01N 25°48' W 080°05'0 0.0
2020-Mar-27 08:01N 25°48' W 080°05'0 0.0
2020-Mar-27 06:01N 25°48' W 080°05'0 0.0
2020-Mar-27 03:30N 25°48' W 080°05'0 0.0
2020-Mar-26 21:31N 25°48' W 080°05'0 0.0
2020-Mar-26 21:01N 25°48' W 080°05'0 0.0
2020-Mar-26 18:00N 25°48' W 080°05'0 0.0
2020-Mar-26 17:31N 25°48' W 080°05'0 0.0
2020-Mar-26 15:01N 25°48' W 080°05'0 0.0
2020-Mar-26 13:31N 25°48' W 080°05'0 0.0
2020-Mar-26 11:00N 25°48' W 080°05'7 6.9
2020-Mar-26 10:00N 25°49' W 079°57'5 9.6
2020-Mar-26 09:30N 25°47' W 079°52'15 9.8
2020-Mar-26 08:00N 25°35' W 079°44'611.0
2020-Mar-26 07:30N 25°31' W 079°40'610.9
2020-Mar-26 07:00N 25°26' W 079°36'510.3
2020-Mar-26 06:30N 25°22' W 079°33'6 9.6
2020-Mar-26 05:51N 25°16' W 079°31'15 9.6
2020-Mar-26 04:16N 25°02' W 079°36'8 9.5
2020-Mar-26 03:27N 25°01' W 079°45'33 7.5
2020-Mar-25 23:00N 25°34' W 079°53'15 6.1
2020-Mar-25 20:30N 25°47' W 080°02'3 0.6
2020-Mar-25 15:29N 25°48' W 080°05'0 0.0
2020-Mar-25 13:29N 25°48' W 080°05'0 0.0
2020-Mar-25 12:59N 25°48' W 080°05'0 0.0
2020-Mar-25 10:29N 25°48' W 080°05'0 0.0
2020-Mar-25 08:29N 25°48' W 080°05'0 0.1
2020-Mar-25 07:59N 25°48' W 080°05'0 0.0
2020-Mar-25 05:29N 25°48' W 080°05'0 0.0
2020-Mar-25 01:29N 25°48' W 080°05'0 0.0
2020-Mar-25 00:59N 25°48' W 080°05'0 0.0
2020-Mar-25 00:29N 25°48' W 080°05'0 0.0
2020-Mar-24 22:59N 25°48' W 080°05'0 0.0
2020-Mar-24 21:29N 25°48' W 080°05'0 0.0
2020-Mar-24 19:59N 25°48' W 080°05'0 0.0
2020-Mar-24 19:29N 25°48' W 080°05'0 0.0
2020-Mar-24 18:59N 25°48' W 080°05'0 0.0
2020-Mar-24 17:29N 25°48' W 080°05'0 0.0
2020-Mar-24 16:59N 25°48' W 080°05'0 0.0
2020-Mar-24 15:29N 25°48' W 080°05'0 0.0
2020-Mar-24 13:59N 25°48' W 080°05'0 0.0
2020-Mar-24 13:29N 25°48' W 080°05'0 0.0
2020-Mar-24 12:59N 25°48' W 080°05'0 0.0
2020-Mar-24 09:59N 25°48' W 080°05'0 0.0
2020-Mar-24 08:29N 25°48' W 080°05'0 0.1
2020-Mar-24 07:59N 25°48' W 080°05'0 0.1
2020-Mar-24 07:29N 25°48' W 080°05'0 0.0
2020-Mar-24 05:29N 25°48' W 080°05'0 0.0
2020-Mar-24 04:29N 25°48' W 080°05'1 0.2
2020-Mar-24 01:30N 25°47' W 080°04'5 5.2
2020-Mar-24 00:30N 25°47' W 080°10'0 0.0
2020-Mar-23 23:29N 25°47' W 080°10'0 0.0
2020-Mar-23 20:59N 25°47' W 080°10'0 0.0
2020-Mar-23 19:29N 25°47' W 080°10'0 0.0
2020-Mar-23 13:29N 25°47' W 080°10'0 0.0
2020-Mar-23 12:59N 25°47' W 080°10'0 0.0
2020-Mar-23 11:29N 25°47' W 080°10'0 0.0
2020-Mar-23 10:59N 25°47' W 080°10'0 0.0
2020-Mar-23 09:29N 25°47' W 080°10'0 0.0
2020-Mar-23 07:59N 25°47' W 080°10'0 0.0
2020-Mar-23 05:29N 25°47' W 080°10'0 0.0
2020-Mar-23 04:29N 25°47' W 080°10'  
Track history (hours):
 
Tides and Currents Weather Stations Pressure Air Temp Water Temp Dewpoint Dewpoint Depression Visibility Wind Speed Wind Dir Waves Ship Positions

Carnival Pride

Operator: Carnival Cruise Lines

Last reported at 2020-Apr-02 02:29 UTC. Time now 2020-Apr-02 04:16 UTC.
Position N 25°47' W 080°10'.

Type: Passenger vessel. MMSI: 354215000.

Date/timePositionNaut miles runAvg speedWind from/ knotsBaromVisibWave heightAir tempDewpointWater temp
2020-Apr-02 02:29N 25°47' W 080°10'0 0.0
2020-Apr-02 01:59N 25°47' W 080°10'0 0.0
2020-Apr-01 22:59N 25°47' W 080°10'0 0.0
2020-Apr-01 22:29N 25°47' W 080°10'0 0.0
2020-Apr-01 21:29N 25°47' W 080°10'0 0.0
2020-Apr-01 20:59N 25°47' W 080°10'0 0.0
2020-Apr-01 18:29N 25°47' W 080°10'0 0.0
2020-Apr-01 17:56N 25°47' W 080°10'0 0.0
2020-Apr-01 16:59N 25°47' W 080°10'0 0.0
2020-Apr-01 16:26N 25°47' W 080°10'0 0.0
2020-Apr-01 10:29N 25°47' W 080°10'0 0.0
2020-Apr-01 07:59N 25°47' W 080°10'0 0.0
2020-Apr-01 07:29N 25°47' W 080°10'0 0.0
2020-Mar-31 21:59N 25°47' W 080°10'0 0.0
2020-Mar-31 20:59N 25°47' W 080°10'0 0.0
2020-Mar-31 20:29N 25°47' W 080°10'0 0.0
2020-Mar-31 17:59N 25°47' W 080°10'0 0.0
2020-Mar-31 16:29N 25°47' W 080°10'0 0.0
2020-Mar-31 15:59N 25°47' W 080°10'0 0.0
2020-Mar-31 11:29N 25°47' W 080°10'0 0.0
2020-Mar-31 10:59N 25°47' W 080°10'1 0.8
2020-Mar-31 10:00N 25°46' W 080°09'510.1
2020-Mar-31 09:30N 25°46' W 080°04'1110.9
2020-Mar-31 08:30N 25°48' W 079°52'1212.1
2020-Mar-31 07:30N 25°38' W 079°45'1312.8
2020-Mar-31 06:30N 25°29' W 079°35'11 7.6
2020-Mar-31 05:00N 25°18' W 079°35'2 4.2
2020-Mar-31 04:30N 25°19' W 079°33'1212.1
2020-Mar-31 03:30N 25°07' W 079°34'18 7.1
2020-Mar-31 00:57N 25°13' W 079°53'12 8.5
2020-Mar-30 23:30N 25°25' W 079°53'16 8.2
2020-Mar-30 21:30N 25°41' W 079°54'4 7.1
2020-Mar-30 21:00N 25°43' W 079°57'8 2.3
2020-Mar-30 17:31N 25°48' W 080°05'0 0.0
2020-Mar-30 16:31N 25°48' W 080°05'0 0.0
2020-Mar-30 14:31N 25°48' W 080°05'0 0.0
2020-Mar-30 14:01N 25°48' W 080°05'0 0.0
2020-Mar-30 11:58N 25°48' W 080°05'0 0.0
2020-Mar-30 10:28N 25°48' W 080°05'0 0.0
2020-Mar-30 08:31N 25°48' W 080°05'0 0.0
2020-Mar-30 08:00N 25°48' W 080°05'0 0.0
2020-Mar-30 06:00N 25°48' W 080°05'0 0.0
2020-Mar-30 05:30N 25°48' W 080°05'0 0.0
2020-Mar-30 04:31N 25°48' W 080°05'0 0.0
2020-Mar-30 01:58N 25°48' W 080°05'0 0.0
2020-Mar-30 01:28N 25°48' W 080°05'0 0.0
2020-Mar-29 22:22N 25°48' W 080°05'0 0.0
2020-Mar-29 21:28N 25°48' W 080°05'0 0.0
2020-Mar-29 20:28N 25°48' W 080°05'0 0.0
2020-Mar-29 19:25N 25°48' W 080°05'0 0.0
2020-Mar-29 19:01N 25°48' W 080°05'0 0.0
2020-Mar-29 18:01N 25°48' W 080°05'0 0.0
2020-Mar-29 17:30N 25°48' W 080°05'0 0.0
2020-Mar-29 16:31N 25°48' W 080°05'0 0.0
2020-Mar-29 14:31N 25°48' W 080°05'0 0.0
2020-Mar-29 13:31N 25°48' W 080°05'0 0.1
2020-Mar-29 13:00N 25°48' W 080°05'0 0.1
2020-Mar-29 12:31N 25°48' W 080°05'0 0.0
2020-Mar-29 11:22N 25°48' W 080°05'0 0.0
2020-Mar-29 08:55N 25°48' W 080°05'0 0.0
2020-Mar-29 03:28N 25°48' W 080°05'0 0.0
2020-Mar-29 02:31N 25°48' W 080°05'0 0.0
2020-Mar-29 00:01N 25°48' W 080°05'0 0.0
2020-Mar-28 23:31N 25°48' W 080°05'0 0.0
2020-Mar-28 20:55N 25°48' W 080°05'0 0.0
2020-Mar-28 19:31N 25°48' W 080°05'0 0.0
2020-Mar-28 15:31N 25°48' W 080°05'0 0.0
2020-Mar-28 12:31N 25°48' W 080°05'0 0.0
2020-Mar-28 12:01N 25°48' W 080°05'0 0.1
2020-Mar-28 11:31N 25°48' W 080°05'0 0.0
2020-Mar-28 08:28N 25°48' W 080°05'0 0.0
2020-Mar-28 06:25N 25°48' W 080°05'0 0.0
2020-Mar-28 05:58N 25°48' W 080°05'0 0.0
2020-Mar-28 02:57N 25°48' W 080°05'0 0.0
2020-Mar-28 02:28N 25°48' W 080°05'0 0.0
2020-Mar-28 02:01N 25°48' W 080°05'0 0.0
2020-Mar-28 01:00N 25°48' W 080°05'0 0.0
2020-Mar-27 22:31N 25°48' W 080°05'0 0.0
2020-Mar-27 21:31N 25°48' W 080°05'0 0.0
2020-Mar-27 17:00N 25°48' W 080°05'0 0.0
2020-Mar-27 16:31N 25°48' W 080°05'0 0.0
2020-Mar-27 16:00N 25°48' W 080°05'0 0.0
2020-Mar-27 15:01N 25°48' W 080°05'0 0.0
2020-Mar-27 13:31N 25°48' W 080°05'0 0.0
2020-Mar-27 12:31N 25°48' W 080°05'0 0.0
2020-Mar-27 12:01N 25°48' W 080°05'0 0.0
2020-Mar-27 10:31N 25°48' W 080°05'0 0.0
2020-Mar-27 10:01N 25°48' W 080°05'0 0.0
2020-Mar-27 08:01N 25°48' W 080°05'0 0.0
2020-Mar-27 06:01N 25°48' W 080°05'0 0.0
2020-Mar-27 03:30N 25°48' W 080°05'0 0.0
2020-Mar-26 21:31N 25°48' W 080°05'0 0.0
2020-Mar-26 21:01N 25°48' W 080°05'0 0.0
2020-Mar-26 18:00N 25°48' W 080°05'0 0.0
2020-Mar-26 17:31N 25°48' W 080°05'0 0.0
2020-Mar-26 15:01N 25°48' W 080°05'0 0.0
2020-Mar-26 13:31N 25°48' W 080°05'0 0.0
2020-Mar-26 11:00N 25°48' W 080°05'7 6.9
2020-Mar-26 10:00N 25°49' W 079°57'5 9.6
2020-Mar-26 09:30N 25°47' W 079°52'15 9.8
2020-Mar-26 08:00N 25°35' W 079°44'611.0
2020-Mar-26 07:30N 25°31' W 079°40'610.9
2020-Mar-26 07:00N 25°26' W 079°36'510.3
2020-Mar-26 06:30N 25°22' W 079°33'6 9.6
2020-Mar-26 05:51N 25°16' W 079°31'15 9.6
2020-Mar-26 04:16N 25°02' W 079°36'8 9.5
2020-Mar-26 03:27N 25°01' W 079°45'33 7.5
2020-Mar-25 23:00N 25°34' W 079°53'15 6.1
2020-Mar-25 20:30N 25°47' W 080°02'3 0.6
2020-Mar-25 15:29N 25°48' W 080°05'0 0.0
2020-Mar-25 13:29N 25°48' W 080°05'0 0.0
2020-Mar-25 12:59N 25°48' W 080°05'0 0.0
2020-Mar-25 10:29N 25°48' W 080°05'0 0.0
2020-Mar-25 08:29N 25°48' W 080°05'0 0.1
2020-Mar-25 07:59N 25°48' W 080°05'0 0.0
2020-Mar-25 05:29N 25°48' W 080°05'0 0.0
2020-Mar-25 01:29N 25°48' W 080°05'0 0.0
2020-Mar-25 00:59N 25°48' W 080°05'0 0.0
2020-Mar-25 00:29N 25°48' W 080°05'0 0.0
2020-Mar-24 22:59N 25°48' W 080°05'0 0.0
2020-Mar-24 21:29N 25°48' W 080°05'0 0.0
2020-Mar-24 19:59N 25°48' W 080°05'0 0.0
2020-Mar-24 19:29N 25°48' W 080°05'0 0.0
2020-Mar-24 18:59N 25°48' W 080°05'0 0.0
2020-Mar-24 17:29N 25°48' W 080°05'0 0.0
2020-Mar-24 16:59N 25°48' W 080°05'0 0.0
2020-Mar-24 15:29N 25°48' W 080°05'0 0.0
2020-Mar-24 13:59N 25°48' W 080°05'0 0.0
2020-Mar-24 13:29N 25°48' W 080°05'0 0.0
2020-Mar-24 12:59N 25°48' W 080°05'0 0.0
2020-Mar-24 09:59N 25°48' W 080°05'0 0.0
2020-Mar-24 08:29N 25°48' W 080°05'0 0.1
2020-Mar-24 07:59N 25°48' W 080°05'0 0.1
2020-Mar-24 07:29N 25°48' W 080°05'0 0.0
2020-Mar-24 05:29N 25°48' W 080°05'0 0.0
2020-Mar-24 04:29N 25°48' W 080°05'1 0.2
2020-Mar-24 01:30N 25°47' W 080°04'5 5.2
2020-Mar-24 00:30N 25°47' W 080°10'0 0.0
2020-Mar-23 23:29N 25°47' W 080°10'0 0.0
2020-Mar-23 20:59N 25°47' W 080°10'0 0.0
2020-Mar-23 19:29N 25°47' W 080°10'0 0.0
2020-Mar-23 13:29N 25°47' W 080°10'0 0.0
2020-Mar-23 12:59N 25°47' W 080°10'0 0.0
2020-Mar-23 11:29N 25°47' W 080°10'0 0.0
2020-Mar-23 10:59N 25°47' W 080°10'0 0.0
2020-Mar-23 09:29N 25°47' W 080°10'0 0.0
2020-Mar-23 07:59N 25°47' W 080°10'0 0.0
2020-Mar-23 05:29N 25°47' W 080°10'0 0.0
2020-Mar-23 04:29N 25°47' W 080°10'  

Dump ship's entire track history